Accueil
METAR-TAF:

METAR-TAF

Aéroports :

Le Touquet, France

Aéroport du Touquet-Côte d'Opale

latitude: 50-30-53N, longitude: 001-37-39E, altitude: 6 m

Observation

Le bulletin a été fait il y a 43 minutes, à 19:00 UTC
Vent 4 kt de sud
Température 3°C
Humidité 87%
Pression 1012 hPa
Visibilité 10 km ou plus
Quelques nuages à une hauteur de 1500 ft
Ciel couvert à une hauteur de 20000 ft

METAR: LFAT 121900Z AUTO 17004KT 9999 FEW015 OVC200 03/01 Q1012

Heure: 20:43 (19:43 UTC)

Prévision

Le bulletin a été fait il y a 5 heures et 43 minutes, à 14:00 UTC
Prévision valable du 12 à 15 UTC au 12 à 24 UTC
Vent 7 kt de ouest/sud-ouest
Visibilité 10 km ou plus
Nuages fragmentés à une hauteur de 3000 ft
Probabilité 30% :
Temporairement
du 12 à 19 UTC au 12 à 24 UTC
Visibilité: 4000 m
averses de pluie

TAF: LFAT 121400Z 1215/1224 24007KT 9999 BKN030 PROB30 TEMPO 1219/1224 4000 SHRA

Observations et prévisions météorologiques de plus de 4000 aéroports (messages METAR et TAF).

Les stations disponibles sont représentées par des disques jaunes et rouges sur la carte.

Passer la souris dessus pour voir le nom de la station.

Cliquer dessus pour voir les observations et prévisions météorologiques.

Pour changer de carte: cliquez sur les boutons verts avec une croix noire pour zoomer, sur le bouton vert avec un tiret pour effectuer un zoom arrière, ou sur les flèches vertes pour les cartes adjacentes.


METAR-TAF: